• Join FlightAware (Why Join?)
  • Login
  • US Flag GB Flag 
06:42 EDT


 

Airport Tracker/Info


-or-


 

Live Flight TrackerFlight Track Log ✈ UAL3756 ✈ 03-May-2013 ✈ KBTV - KORD

Flight Track Log - Related Links

Times and Time Zones

All times are in EDT time to prevent confusion due to time zone crossing. See the UAL3756 flight status page for this flight to view local times or setup timezone preferences in your user account.

Time Position Orientation Groundspeed Altitude Reporting Facility
EDT Latitude Longitude Course Direction KTS MPH feet Rate Location/Type
14:53 44.4811 -73.2983 255° West 227 261 4,600  Level Boston Center
14:54 44.3900 -73.5912 253° West  Level FlightAware Approximate
14:54 44.4681 -73.3767 257° West 249 287 6,800  Level Boston Center
14:55 44.3614 -73.7373 259° West  Level FlightAware Approximate
14:55 44.4439 -73.5044 255° West 277 319 10,100  Level Boston Center
14:56 44.3402 -73.8859 259° West  Level FlightAware Approximate
14:56 44.4242 -73.6144 256° West 294 338 12,600  Level Boston Center
14:57 44.3145 -74.0330 255° West  Level FlightAware Approximate
14:57 44.3997 -73.7475 256° West 310 357 15,400  Level Boston Center
14:58 44.2866 -74.1793 255° West  Level FlightAware Approximate
14:58 44.3775 -73.8750 256° West 322 371 17,600  Level Boston Center
14:59 44.3550 -74.0022 256° West 334 384 19,400 1,260 Climbing Boston Center
15:00 44.3300 -74.1408 256° West 348 400 20,200 1,200 Climbing Boston Center
15:01 44.3028 -74.2881 256° West 379 436 21,800 1,500 Climbing Boston Center
15:02 44.2708 -74.4464 254° West 404 465 23,200 1,380 Climbing Boston Center
15:03 44.2431 -74.5992 256° West 419 482 24,600 1,380 Climbing Boston Center
15:04 44.2128 -74.7631 256° West 431 496 26,000 1,260 Climbing Boston Center
15:05 44.1822 -74.9269 255° West 436 502 27,200 1,200 Climbing Boston Center
15:06 44.1517 -75.0936 256° West 436 502 28,400 1,020 Climbing Boston Center
15:07 44.1183 -75.2569 254° West 441 507 29,300 780 Climbing Boston Center
15:08 44.0875 -75.4144 255° West 454 522 30,000 780 Climbing Boston Center
15:09 44.0536 -75.5833 254° West 459 528 30,900 780 Climbing Boston Center
15:10 44.0197 -75.7575 255° West 459 528 31,600 960 Climbing Boston Center
15:11 43.9853 -75.9319 255° West 464 534 32,900 1,140 Climbing Boston Center
15:12 43.9550 -76.0975 256° West 469 540 33,900 900 Climbing Boston Center
15:13 43.9392 -76.2694 263° West 464 534 34,700 960 Climbing Boston Center
15:14 43.9228 -76.4386 262° West 459 528 35,900 420 Climbing Boston Center
15:16 43.8833 -76.7667 261° West 450 518 36,000  Climbing Toronto Center
15:17 43.8667 -76.9500 263° West 450 518 36,000  Level Toronto Center
15:18 43.8333 -77.1167 255° West 450 518 36,000  Level Toronto Center
15:19 43.8167 -77.2833 262° West 440 506 36,000  Level Toronto Center
15:20 43.8167 -77.4667 270° West 450 518 36,000  Level Toronto Center
15:21 43.8000 -77.6167 261° West 450 518 36,000  Level Toronto Center
15:22 43.7667 -77.8167 257° West 450 518 36,000  Level Toronto Center
15:23 43.7500 -77.9667 261° West 450 518 36,000  Level Toronto Center
15:24 43.7333 -78.1333 262° West 450 518 36,000  Level Toronto Center
15:25 43.7167 -78.3000 262° West 450 518 36,000  Level Toronto Center
15:26 43.7000 -78.4833 263° West 450 518 36,000  Level Toronto Center
15:27 43.6833 -78.6333 261° West 450 518 36,000  Level Toronto Center
15:28 43.6667 -78.8333 263° West 450 518 36,000  Level Toronto Center
15:29 43.6500 -78.9833 261° West 450 518 36,000  Level Toronto Center
15:30 43.6333 -79.1667 263° West 450 518 36,000  Level Toronto Center
15:31 43.6167 -79.3333 262° West 450 518 36,000  Level Toronto Center
15:32 43.6000 -79.5167 263° West 450 518 36,000  Level Toronto Center
15:33 43.5833 -79.6833 262° West 450 518 36,000  Level Toronto Center
15:34 43.5667 -79.8333 261° West 460 529 36,000  Level Toronto Center
15:35 43.5500 -80.0167 263° West 450 518 36,000  Level Toronto Center
15:36 43.5333 -80.1833 262° West 450 518 36,000  Level Toronto Center
15:37 43.5167 -80.3667 263° West 450 518 36,000  Level Toronto Center
15:38 43.5000 -80.5333 262° West 450 518 36,000  Level Toronto Center
15:39 43.4833 -80.7167 263° West 450 518 36,000  Level Toronto Center
15:40 43.4500 -80.8667 253° West 450 518 36,000  Level Toronto Center
15:41 43.4333 -81.0500 263° West 450 518 36,000  Level Toronto Center
15:42 43.4000 -81.2167 255° West 450 518 36,000  Level Toronto Center
15:43 43.3833 -81.4000 263° West 450 518 36,000  Level Toronto Center
15:44 43.3500 -81.5667 255° West 450 518 36,000  Level Toronto Center
15:45 43.3333 -81.7167 261° West 450 518 36,000  Level Toronto Center
15:46 43.3000 -81.8833 255° West 450 518 36,000  Level Toronto Center
15:47 43.2667 -82.0667 256° West 450 518 36,000  Level Toronto Center
15:48 43.2333 -82.2167 253° West 450 518 36,000  Level Toronto Center
15:49 43.2000 -82.4000 256° West 450 518 36,000 -240 Level Toronto Center
15:50 43.1833 -82.5667 262° West 440 506 35,600 -1,020 Descending Toronto Center
15:51 43.1167 -82.6667 228° Southwest 400 460 34,000 -1,560 Descending Toronto Center
15:52 43.0572 -82.8278 243° Southwest 410 472 32,400 -960 Descending Cleveland Center
15:53 42.9981 -82.9733 241° Southwest 423 487 32,000 -240 Descending Cleveland Center
15:54 42.9864 -83.1375 265° West 423 487 32,000  Level Cleveland Center
15:55 42.9803 -83.3106 267° West 437 503 32,000  Level Cleveland Center
15:56 42.9764 -83.4719 268° West 442 509 32,000  Level Cleveland Center
15:57 42.9722 -83.6281 268° West 436 502 32,000  Level Cleveland Center
15:58 42.9617 -83.7864 265° West 423 487 32,000  Level Cleveland Center
15:59 42.9469 -83.9417 263° West 423 487 32,000  Level Cleveland Center
16:00 42.9339 -84.1025 264° West 423 487 32,000  Level Cleveland Center
16:01 42.9161 -84.2661 262° West 429 494 32,000  Level Cleveland Center
16:02 42.9019 -84.4047 262° West 452 520 32,000  Level Chicago Center
16:03 42.8819 -84.6139 263° West 465 535 32,000  Level Chicago Center
16:04 42.8647 -84.7797 262° West 447 514 32,000  Level Chicago Center
16:05 42.8467 -84.9458 262° West 444 511 32,000  Level Chicago Center
16:06 42.8292 -85.1119 262° West 444 511 32,000 -540 Level Chicago Center
16:07 42.8114 -85.2817 262° West 449 517 30,900 -1,260 Descending Chicago Center
16:08 42.7908 -85.4611 261° West 474 545 29,400 -1,560 Descending Chicago Center
16:09 42.7572 -85.6636 257° West 458 527 27,700 -1,200 Descending Chicago Center
16:10 42.7269 -85.8308 256° West 454 522 27,000 -360 Descending Chicago Center
16:11 42.6961 -85.9978 256° West 451 519 27,000 -840 Level Chicago Center
16:12 42.6669 -86.1589 256° West 442 509 25,300 -2,100 Descending Chicago Center
16:14 42.6369 -86.3128 255° West 424 488 22,700 -2,520 Descending Chicago Center
16:15 42.6092 -86.4681 256° West 423 487 20,200 -1,320 Descending Chicago Center
16:16 42.5803 -86.6181 255° West 410 472 20,000 -540 Descending Chicago Center
16:17 42.5506 -86.7731 255° West 411 473 19,100 -1,440 Descending Chicago Center
16:18 42.5039 -86.9386 249° West 397 457 17,100 -2,160 Descending Chicago Center
16:19 42.4669 -87.0672 249° West 380 437 14,600 -2,460 Descending Chicago Center
16:20 42.4311 -87.1958 249° West 369 425 12,100 -2,220 Descending Chicago Center
16:21 42.3964 -87.3231 250° West 364 419 10,100 -1,020 Descending Chicago Center
16:22 42.3628 -87.4456 250° West 350 403 10,000 -60 Descending Chicago Center
16:23 42.3022 -87.5719 237° Southwest 343 395 10,000 -420 Level Chicago Center
16:24 42.2425 -87.6358 218° Southwest 287 330 9,200 -1,320 Descending Chicago Center
16:25 42.1842 -87.6953 217° Southwest 267 307 7,300 -1,080 Descending Chicago Center
16:26 42.1283 -87.7556 219° Southwest 262 302 7,000 -180 Descending Chicago Center
16:26 42.1000 -87.8000 229° Southwest 267 307 7,100  Climbing Chicago TRACON
16:27 42.1000 -87.9167 270° West 295 339 7,000 -60 Descending Chicago TRACON
16:29 42.1000 -88.0167 270° West 254 292 7,000 -240 Level Chicago TRACON
16:29 42.1000 -88.1000 270° West 240 276 6,600 -600 Descending Chicago TRACON
16:30 42.0911 -88.1508 257° West 251 289 6,100 -360 Descending Chicago Center
16:31 42.0906 -88.2372 270° West 239 275 6,000 -540 Descending Chicago Center
16:32 42.0911 -88.3269 271° West 240 276 5,100 -1,020 Descending Chicago Center
16:33 42.0864 -88.4303 267° West 238 274 4,000 -540 Descending Chicago Center
16:34 42.0458 -88.4644 212° Southwest 222 255 4,000  Level Chicago Center
16:35 41.9978 -88.4367 157° South 195 224 4,000  Level Chicago Center
16:36 41.9842 -88.3783 107° East 182 209 4,100  Climbing Chicago Center
16:37 41.9792 -88.3128 96° East 179 206 4,000 -60 Descending Chicago Center
16:38 41.9856 -88.2331 84° East 177 204 4,000  Level Chicago Center
16:39 41.9844 -88.1631 91° East 186 214 4,000 -300 Level Chicago Center
16:40 41.9836 -88.1000 91° East 175 201 3,500 -900 Descending Chicago Center
16:41 41.9833 -88.0167 90° East 176 203 2,200 -1,260 Descending Chicago TRACON